createdAt,value
2018-03-17T00:00:41.985Z,0
2018-03-17T00:01:41.945Z,0
2018-03-17T00:02:41.667Z,0
2018-03-17T00:03:41.877Z,0
2018-03-17T00:04:41.850Z,0
2018-03-17T00:05:41.560Z,0
2018-03-17T00:06:41.777Z,0
2018-03-17T00:07:41.745Z,0
2018-03-17T00:08:41.717Z,0
2018-03-17T00:09:41.431Z,0
2018-03-17T00:10:41.631Z,0
2018-03-17T00:11:41.618Z,0
2018-03-17T00:12:41.330Z,0
2018-03-17T00:13:41.310Z,0
2018-03-17T00:14:41.515Z,0
2018-03-17T00:15:41.483Z,0
2018-03-17T00:16:41.452Z,0
2018-03-17T00:17:41.421Z,0
2018-03-17T00:18:41.389Z,0
2018-03-17T00:19:41.107Z,0
2018-03-17T00:20:41.071Z,0
2018-03-17T00:21:41.295Z,0
2018-03-17T00:22:41.255Z,0
2018-03-17T00:23:41.229Z,0
2018-03-17T00:24:41.188Z,0
2018-03-17T00:25:40.909Z,0
2018-03-17T00:26:41.129Z,0
2018-03-17T00:27:41.111Z,0
2018-03-17T00:28:41.066Z,0
2018-03-17T00:29:41.035Z,0
2018-03-17T00:30:41.036Z,0
2018-03-17T00:31:40.962Z,0
2018-03-17T00:32:40.931Z,0
2018-03-17T00:33:40.651Z,0
2018-03-17T00:34:40.619Z,0
2018-03-17T00:35:40.826Z,0
2018-03-17T00:36:40.545Z,0
2018-03-17T00:37:40.755Z,0
2018-03-17T00:38:40.746Z,0
2018-03-17T00:39:40.691Z,0
2018-03-17T00:40:40.671Z,0
2018-03-17T00:41:40.384Z,0
2018-03-17T00:42:40.612Z,0
2018-03-17T00:43:40.564Z,0
2018-03-17T00:44:40.535Z,0
2018-03-17T00:45:40.511Z,0
2018-03-17T00:46:40.225Z,0
2018-03-17T00:47:40.552Z,0
2018-03-17T00:48:40.153Z,0
2018-03-17T00:49:40.375Z,0
2018-03-17T00:50:40.340Z,0
2018-03-17T00:51:40.314Z,0
2018-03-17T00:52:40.275Z,0
2018-03-17T00:53:40.237Z,0
2018-03-17T00:54:40.197Z,0
2018-03-17T00:55:39.928Z,0
2018-03-17T00:56:40.145Z,0
2018-03-17T00:57:40.208Z,0
2018-03-17T00:58:39.824Z,0
2018-03-17T00:59:40.040Z,0
2018-03-17T01:00:40.010Z,0
2018-03-17T01:01:40.034Z,0
2018-03-17T01:02:39.950Z,0
2018-03-17T01:03:39.914Z,0
2018-03-17T01:04:39.883Z,0
2018-03-17T01:05:39.845Z,0
2018-03-17T01:06:39.563Z,0
2018-03-17T01:07:39.520Z,0
2018-03-17T01:08:39.497Z,0
2018-03-17T01:09:39.718Z,0
2018-03-17T01:10:39.677Z,0
2018-03-17T01:11:39.641Z,0
2018-03-17T01:12:39.611Z,0
2018-03-17T01:13:39.581Z,0
2018-03-17T01:14:39.622Z,0
2018-03-17T01:15:39.517Z,0
2018-03-17T01:16:39.494Z,0
2018-03-17T01:17:39.435Z,0
2018-03-17T01:18:39.407Z,0
2018-03-17T01:19:39.376Z,0
2018-03-17T01:20:39.342Z,0
2018-03-17T01:21:39.319Z,0
2018-03-17T01:22:39.282Z,0
2018-03-17T01:23:39.267Z,0
2018-03-17T01:24:39.219Z,0
2018-03-17T01:25:39.188Z,0
2018-03-17T01:26:39.148Z,0
2018-03-17T01:27:39.115Z,0
2018-03-17T01:28:39.074Z,0
2018-03-17T01:29:39.104Z,0
2018-03-17T01:30:39.037Z,0
2018-03-17T01:31:38.982Z,0
2018-03-17T01:32:38.703Z,0
2018-03-17T01:33:38.910Z,0
2018-03-17T01:34:38.635Z,0
2018-03-17T01:35:38.845Z,0
2018-03-17T01:36:38.870Z,0
2018-03-17T01:37:38.776Z,0
2018-03-17T01:38:38.746Z,0
2018-03-17T01:39:38.720Z,0
2018-03-17T01:40:38.676Z,0
2018-03-17T01:41:38.661Z,0
2018-03-17T01:42:38.645Z,0
2018-03-17T01:43:38.581Z,0
2018-03-17T01:44:38.307Z,0
2018-03-17T01:45:38.518Z,0
2018-03-17T01:46:38.509Z,0
2018-03-17T01:47:38.453Z,0
2018-03-17T01:48:38.416Z,0
2018-03-17T01:49:38.137Z,0
2018-03-17T01:50:38.370Z,0
2018-03-17T01:51:38.328Z,0
2018-03-17T01:52:38.295Z,0
2018-03-17T01:53:38.004Z,0
2018-03-17T01:54:38.224Z,0
2018-03-17T01:55:38.183Z,0
2018-03-17T01:56:38.158Z,0
2018-03-17T01:57:38.122Z,0
2018-03-17T01:58:38.091Z,0
2018-03-17T01:59:38.061Z,0
2018-03-17T02:00:38.033Z,0
2018-03-17T02:01:37.986Z,0
2018-03-17T02:02:37.950Z,0
2018-03-17T02:03:37.420Z,0
2018-03-17T02:04:37.883Z,0
2018-03-17T02:05:37.850Z,0
2018-03-17T02:06:37.581Z,0
2018-03-17T02:07:37.789Z,0
2018-03-17T02:08:37.510Z,0
2018-03-17T02:09:37.719Z,0
2018-03-17T02:10:37.696Z,0
2018-03-17T02:11:37.654Z,0
2018-03-17T02:12:37.616Z,0
2018-03-17T02:13:37.592Z,0
2018-03-17T02:14:37.302Z,0
2018-03-17T02:15:37.526Z,0
2018-03-17T02:16:37.494Z,0
2018-03-17T02:17:37.453Z,0
2018-03-17T02:18:37.422Z,0
2018-03-17T02:19:37.394Z,0
2018-03-17T02:20:37.375Z,0
2018-03-17T02:21:37.329Z,0
2018-03-17T02:22:37.297Z,0
2018-03-17T02:23:37.257Z,0
2018-03-17T02:24:37.229Z,0
2018-03-17T02:25:37.202Z,0
2018-03-17T02:26:36.910Z,0
2018-03-17T02:27:37.144Z,0
2018-03-17T02:28:37.096Z,0
2018-03-17T02:29:37.061Z,0
2018-03-17T02:30:37.043Z,0
2018-03-17T02:31:37.012Z,0
2018-03-17T02:32:36.724Z,0
2018-03-17T02:33:36.934Z,0
2018-03-17T02:34:36.649Z,0
2018-03-17T02:35:36.877Z,0
2018-03-17T02:36:36.836Z,0
2018-03-17T02:37:36.802Z,0
2018-03-17T02:38:36.520Z,0
2018-03-17T02:39:36.732Z,0
2018-03-17T02:40:36.701Z,0
2018-03-17T02:41:36.667Z,0
2018-03-17T02:42:36.634Z,0
2018-03-17T02:43:36.602Z,0
2018-03-17T02:44:36.587Z,0
2018-03-17T02:45:36.529Z,0
2018-03-17T02:46:36.497Z,0
2018-03-17T02:47:36.211Z,0
2018-03-17T02:48:35.989Z,0
2018-03-17T02:49:36.154Z,0
2018-03-17T02:50:36.369Z,0
2018-03-17T02:51:36.340Z,0
2018-03-17T02:52:36.168Z,0
2018-03-17T02:53:36.274Z,0
2018-03-17T02:54:36.255Z,0
2018-03-17T02:55:35.952Z,0
2018-03-17T02:56:35.919Z,0
2018-03-17T02:57:36.134Z,0
2018-03-17T02:58:36.100Z,0
2018-03-17T02:59:35.825Z,0
2018-03-17T03:00:36.027Z,0
2018-03-17T03:01:35.993Z,0
2018-03-17T03:02:35.959Z,0
2018-03-17T03:03:35.932Z,0
2018-03-17T03:04:35.646Z,0
2018-03-17T03:05:35.616Z,0
2018-03-17T03:06:35.843Z,0
2018-03-17T03:07:35.819Z,0
2018-03-17T03:08:35.768Z,0
2018-03-17T03:09:35.726Z,0
2018-03-17T03:10:35.685Z,0
2018-03-17T03:11:35.658Z,0
2018-03-17T03:12:35.630Z,0
2018-03-17T03:13:35.592Z,0
2018-03-17T03:14:35.312Z,0
2018-03-17T03:15:35.522Z,0
2018-03-17T03:16:35.244Z,0
2018-03-17T03:17:35.457Z,0
2018-03-17T03:18:35.419Z,0
2018-03-17T03:19:35.406Z,0
2018-03-17T03:20:35.353Z,0
2018-03-17T03:21:35.330Z,0
2018-03-17T03:22:35.296Z,0
2018-03-17T03:23:35.005Z,0
2018-03-17T03:24:34.974Z,0
2018-03-17T03:25:35.196Z,0
2018-03-17T03:26:35.156Z,0
2018-03-17T03:27:35.120Z,0
2018-03-17T03:28:35.089Z,0
2018-03-17T03:29:34.873Z,0
2018-03-17T03:30:35.045Z,0
2018-03-17T03:31:34.993Z,0
2018-03-17T03:32:34.957Z,0
2018-03-17T03:33:34.933Z,0
2018-03-17T03:34:34.891Z,0
2018-03-17T03:35:34.854Z,0
2018-03-17T03:36:34.567Z,0
2018-03-17T03:37:34.789Z,0
2018-03-17T03:38:34.758Z,0
2018-03-17T03:39:34.729Z,0
2018-03-17T03:40:34.688Z,0
2018-03-17T03:41:34.652Z,0
2018-03-17T03:42:34.374Z,0
2018-03-17T03:43:34.611Z,0
2018-03-17T03:44:34.307Z,0
2018-03-17T03:45:34.266Z,0
2018-03-17T03:46:34.492Z,0
2018-03-17T03:47:34.453Z,0
2018-03-17T03:48:34.424Z,0
2018-03-17T03:49:34.389Z,0
2018-03-17T03:50:34.109Z,0
2018-03-17T03:51:33.823Z,0
2018-03-17T03:52:34.282Z,0
2018-03-17T03:53:34.249Z,0
2018-03-17T03:54:34.216Z,0
2018-03-17T03:55:34.194Z,0
2018-03-17T03:56:34.150Z,0
2018-03-17T03:57:34.119Z,0
2018-03-17T03:58:33.836Z,0
2018-03-17T03:59:33.796Z,0
2018-03-17T04:00:34.028Z,0
2018-03-17T04:01:33.981Z,0
2018-03-17T04:02:33.947Z,0
2018-03-17T04:03:33.912Z,0
2018-03-17T04:04:33.884Z,0
2018-03-17T04:05:33.860Z,0
2018-03-17T04:06:33.817Z,0
2018-03-17T04:07:33.777Z,0
2018-03-17T04:08:33.745Z,0
2018-03-17T04:09:33.223Z,0
2018-03-17T04:10:33.437Z,0
2018-03-17T04:11:33.702Z,0
2018-03-17T04:12:33.615Z,0
2018-03-17T04:13:33.814Z,0
2018-03-17T04:14:33.546Z,0
2018-03-17T04:15:33.513Z,0
2018-03-17T04:16:33.478Z,0
2018-03-17T04:17:33.450Z,0
2018-03-17T04:18:33.415Z,0
2018-03-17T04:19:33.137Z,0
2018-03-17T04:20:33.103Z,0
2018-03-17T04:21:33.061Z,0
2018-03-17T04:22:33.280Z,0
2018-03-17T04:23:32.998Z,0
2018-03-17T04:24:32.968Z,0
2018-03-17T04:25:33.169Z,0
2018-03-17T04:26:33.141Z,0
2018-03-17T04:27:33.110Z,0
2018-03-17T04:28:33.072Z,0
2018-03-17T04:29:33.037Z,0
2018-03-17T04:30:33.005Z,0
2018-03-17T04:31:32.988Z,0
2018-03-17T04:32:32.946Z,0
2018-03-17T04:33:32.657Z,0
2018-03-17T04:34:32.872Z,0
2018-03-17T04:35:32.836Z,0
2018-03-17T04:36:32.802Z,0
2018-03-17T04:37:32.774Z,0
2018-03-17T04:38:32.738Z,0
2018-03-17T04:39:32.454Z,0
2018-03-17T04:40:32.669Z,0
2018-03-17T04:41:32.396Z,0
2018-03-17T04:42:32.602Z,0
2018-03-17T04:43:32.566Z,0
2018-03-17T04:44:32.291Z,0
2018-03-17T04:45:32.061Z,0
2018-03-17T04:46:32.477Z,0
2018-03-17T04:47:32.447Z,0
2018-03-17T04:48:32.528Z,0
2018-03-17T04:49:32.380Z,0
2018-03-17T04:50:32.082Z,0
2018-03-17T04:51:31.805Z,0
2018-03-17T04:52:32.293Z,0
2018-03-17T04:53:31.991Z,0
2018-03-17T04:54:31.954Z,0
2018-03-17T04:55:32.163Z,0
2018-03-17T04:56:31.882Z,0
2018-03-17T04:57:31.844Z,0
2018-03-17T04:58:32.063Z,0
2018-03-17T04:59:31.778Z,0
2018-03-17T05:00:31.993Z,0
2018-03-17T05:01:31.968Z,0
2018-03-17T05:02:31.925Z,0
2018-03-17T05:03:31.887Z,0
2018-03-17T05:04:31.360Z,0
2018-03-17T05:05:31.844Z,0
2018-03-17T05:06:31.850Z,0
2018-03-17T05:07:31.756Z,0
2018-03-17T05:08:31.727Z,0
2018-03-17T05:09:31.689Z,0
2018-03-17T05:10:31.664Z,0
2018-03-17T05:11:31.623Z,0
2018-03-17T05:12:31.589Z,0
2018-03-17T05:13:31.310Z,0
2018-03-17T05:14:31.517Z,0
2018-03-17T05:15:31.498Z,0
2018-03-17T05:16:31.450Z,0
2018-03-17T05:17:31.418Z,0
2018-03-17T05:18:31.138Z,0
2018-03-17T05:19:31.115Z,0
2018-03-17T05:20:31.315Z,0
2018-03-17T05:21:31.292Z,0
2018-03-17T05:22:31.258Z,0
2018-03-17T05:23:30.967Z,0
2018-03-17T05:24:30.935Z,0
2018-03-17T05:25:31.148Z,0
2018-03-17T05:26:31.116Z,0
2018-03-17T05:27:31.085Z,0
2018-03-17T05:28:31.043Z,0
2018-03-17T05:29:31.011Z,0
2018-03-17T05:30:30.980Z,0
2018-03-17T05:31:30.943Z,0
2018-03-17T05:32:30.903Z,0
2018-03-17T05:33:30.881Z,0
2018-03-17T05:34:30.846Z,0
2018-03-17T05:35:30.853Z,0
2018-03-17T05:36:30.518Z,0
2018-03-17T05:37:30.741Z,0
2018-03-17T05:38:30.698Z,0
2018-03-17T05:39:30.680Z,0
2018-03-17T05:40:30.632Z,0
2018-03-17T05:41:30.613Z,0
2018-03-17T05:42:30.572Z,0
2018-03-17T05:43:30.362Z,0
2018-03-17T05:44:30.494Z,5
2018-03-17T05:45:30.459Z,5
2018-03-17T05:46:30.181Z,5
2018-03-17T05:47:30.396Z,5
2018-03-17T05:48:29.616Z,5
2018-03-17T05:49:30.075Z,5
2018-03-17T05:50:30.306Z,5
2018-03-17T05:51:30.262Z,5
2018-03-17T05:52:30.224Z,5
2018-03-17T05:53:29.700Z,10
2018-03-17T05:54:30.205Z,10
2018-03-17T05:55:30.118Z,10
2018-03-17T05:56:30.097Z,10
2018-03-17T05:57:29.802Z,10
2018-03-17T05:58:30.052Z,10
2018-03-17T05:59:29.984Z,10
2018-03-17T06:00:29.945Z,10
2018-03-17T06:01:29.678Z,10
2018-03-17T06:02:29.888Z,10
2018-03-17T06:03:29.855Z,10
2018-03-17T06:04:29.963Z,15
2018-03-17T06:05:29.781Z,15
2018-03-17T06:06:29.744Z,15
2018-03-17T06:07:29.479Z,15
2018-03-17T06:08:29.682Z,20
2018-03-17T06:09:29.393Z,20
2018-03-17T06:10:29.360Z,20
2018-03-17T06:11:29.573Z,20
2018-03-17T06:12:29.528Z,20
2018-03-17T06:13:29.503Z,20
2018-03-17T06:14:29.224Z,20
2018-03-17T06:15:29.484Z,25
2018-03-17T06:16:29.157Z,20
2018-03-17T06:17:29.120Z,25
2018-03-17T06:18:29.335Z,25
2018-03-17T06:19:29.299Z,30
2018-03-17T06:20:29.266Z,30
2018-03-17T06:21:29.236Z,30
2018-03-17T06:22:29.196Z,30
2018-03-17T06:23:29.164Z,30
2018-03-17T06:24:28.878Z,35
2018-03-17T06:25:29.166Z,35
2018-03-17T06:26:29.053Z,35
2018-03-17T06:27:29.024Z,35
2018-03-17T06:28:28.748Z,35
2018-03-17T06:29:28.453Z,35
2018-03-17T06:30:28.924Z,40
2018-03-17T06:31:28.896Z,40
2018-03-17T06:32:29.146Z,45
2018-03-17T06:33:28.809Z,40
2018-03-17T06:34:28.279Z,35
2018-03-17T06:35:28.750Z,35
2018-03-17T06:36:28.907Z,35
2018-03-17T06:37:28.675Z,35
2018-03-17T06:38:28.654Z,35
2018-03-17T06:39:28.732Z,35
2018-03-17T06:40:28.333Z,35
2018-03-17T06:41:28.539Z,35
2018-03-17T06:42:28.506Z,35
2018-03-17T06:43:28.510Z,40
2018-03-17T06:44:27.996Z,40
2018-03-17T06:45:27.933Z,40
2018-03-17T06:46:28.129Z,40
2018-03-17T06:47:27.601Z,45
2018-03-17T06:48:27.810Z,45
2018-03-17T06:49:28.285Z,40
2018-03-17T06:50:29.082Z,45
2018-03-17T06:51:28.638Z,45
2018-03-17T06:52:28.765Z,45
2018-03-17T06:53:28.265Z,50
2018-03-17T06:54:29.482Z,50
2018-03-17T06:55:29.159Z,50
2018-03-17T06:56:28.892Z,55
2018-03-17T06:57:28.692Z,55
2018-03-17T06:58:28.546Z,50
2018-03-17T06:59:28.909Z,50
2018-03-17T07:00:29.872Z,55
2018-03-17T07:01:30.294Z,55
2018-03-17T07:02:29.506Z,55
2018-03-17T07:03:28.798Z,55
2018-03-17T07:04:29.259Z,60
2018-03-17T07:05:29.940Z,65
2018-03-17T07:06:31.025Z,65
2018-03-17T07:07:31.842Z,75
2018-03-17T07:08:29.707Z,70
2018-03-17T07:09:30.510Z,70
2018-03-17T07:10:29.390Z,70
2018-03-17T07:11:30.383Z,80
2018-03-17T07:12:30.062Z,85
2018-03-17T07:13:28.229Z,90
2018-03-17T07:14:30.141Z,95
2018-03-17T07:15:29.915Z,90
2018-03-17T07:16:30.280Z,110
2018-03-17T07:17:29.894Z,105
2018-03-17T07:18:28.390Z,100
2018-03-17T07:19:28.974Z,100
2018-03-17T07:20:30.624Z,105
2018-03-17T07:21:27.801Z,115
2018-03-17T07:22:28.031Z,110
2018-03-17T07:23:28.148Z,100
2018-03-17T07:24:30.247Z,115
2018-03-17T07:25:30.365Z,115
2018-03-17T07:26:28.746Z,120
2018-03-17T07:27:30.448Z,120
2018-03-17T07:28:29.750Z,125
2018-03-17T07:29:28.749Z,140
2018-03-17T07:30:27.421Z,140
2018-03-17T07:31:28.014Z,150
2018-03-17T07:32:30.170Z,150
2018-03-17T07:33:29.349Z,140
2018-03-17T07:34:30.197Z,130
2018-03-17T07:35:28.405Z,135
2018-03-17T07:36:27.947Z,135
2018-03-17T07:37:28.534Z,130
2018-03-17T07:38:29.326Z,125
2018-03-17T07:39:27.690Z,120
2018-03-17T07:40:28.543Z,125
2018-03-17T07:41:27.372Z,130
2018-03-17T07:42:27.634Z,125
2018-03-17T07:43:26.852Z,120
2018-03-17T07:44:27.499Z,115
2018-03-17T07:45:28.825Z,115
2018-03-17T07:46:28.667Z,120
2018-03-17T07:47:28.827Z,135
2018-03-17T07:48:29.016Z,145
2018-03-17T07:49:29.074Z,155
2018-03-17T07:50:29.291Z,165
2018-03-17T07:51:28.061Z,150
2018-03-17T07:52:27.478Z,150
2018-03-17T07:53:29.015Z,130
2018-03-17T07:54:28.535Z,125
2018-03-17T07:55:28.461Z,125
2018-03-17T07:56:28.270Z,125
2018-03-17T07:57:28.438Z,125
2018-03-17T07:58:28.045Z,120
2018-03-17T07:59:29.325Z,140
2018-03-17T08:00:28.988Z,145
2018-03-17T08:01:28.404Z,170
2018-03-17T08:02:27.834Z,170
2018-03-17T08:03:29.129Z,175
2018-03-17T08:04:26.533Z,205
2018-03-17T08:05:27.380Z,225
2018-03-17T08:06:26.538Z,245
2018-03-17T08:07:29.248Z,265
2018-03-17T08:08:28.035Z,250
2018-03-17T08:09:28.047Z,245
2018-03-17T08:10:28.201Z,255
2018-03-17T08:11:26.665Z,230
2018-03-17T08:12:27.362Z,210
2018-03-17T08:13:27.482Z,210
2018-03-17T08:14:27.194Z,225
2018-03-17T08:15:28.544Z,200
2018-03-17T08:16:28.187Z,195
2018-03-17T08:17:27.721Z,220
2018-03-17T08:18:26.757Z,230
2018-03-17T08:19:26.567Z,220
2018-03-17T08:20:26.243Z,225
2018-03-17T08:21:27.062Z,240
2018-03-17T08:22:28.294Z,235
2018-03-17T08:23:27.180Z,220
2018-03-17T08:24:28.908Z,245
2018-03-17T08:25:26.911Z,245
2018-03-17T08:26:26.921Z,215
2018-03-17T08:27:27.616Z,230
2018-03-17T08:28:27.367Z,255
2018-03-17T08:29:26.815Z,260
2018-03-17T08:30:26.497Z,280
2018-03-17T08:31:26.582Z,295
2018-03-17T08:32:25.671Z,325
2018-03-17T08:33:25.815Z,335
2018-03-17T08:34:25.845Z,280
2018-03-17T08:35:26.986Z,285
2018-03-17T08:36:25.581Z,265
2018-03-17T08:37:27.570Z,235
2018-03-17T08:38:26.713Z,225
2018-03-17T08:39:25.867Z,265
2018-03-17T08:40:25.506Z,275
2018-03-17T08:41:25.418Z,280
2018-03-17T08:42:26.391Z,280
2018-03-17T08:43:25.637Z,260
2018-03-17T08:44:26.114Z,275
2018-03-17T08:45:25.005Z,265
2018-03-17T08:46:25.810Z,285
2018-03-17T08:47:25.562Z,315
2018-03-17T08:48:26.137Z,275
2018-03-17T08:49:25.018Z,305
2018-03-17T08:50:24.178Z,305
2018-03-17T08:51:25.042Z,315
2018-03-17T08:52:24.671Z,325
2018-03-17T08:53:25.644Z,315
2018-03-17T08:54:24.213Z,360
2018-03-17T08:55:24.071Z,350
2018-03-17T08:56:24.530Z,360
2018-03-17T08:57:23.889Z,375
2018-03-17T08:58:24.393Z,345
2018-03-17T08:59:25.397Z,405
2018-03-17T09:00:25.986Z,415
2018-03-17T09:01:27.191Z,380
2018-03-17T09:02:25.218Z,430
2018-03-17T09:03:25.590Z,395
2018-03-17T09:04:25.595Z,405
2018-03-17T09:05:25.549Z,410
2018-03-17T09:06:26.058Z,405
2018-03-17T09:07:26.114Z,345
2018-03-17T09:08:25.652Z,365
2018-03-17T09:09:25.024Z,325
2018-03-17T09:10:26.487Z,320
2018-03-17T09:11:24.408Z,355
2018-03-17T09:12:25.068Z,355
2018-03-17T09:13:25.070Z,395
2018-03-17T09:14:26.829Z,465
2018-03-17T09:15:25.109Z,525
2018-03-17T09:16:26.712Z,510
2018-03-17T09:17:24.730Z,515
2018-03-17T09:18:25.669Z,485
2018-03-17T09:19:25.435Z,515
2018-03-17T09:20:24.700Z,465
2018-03-17T09:21:25.281Z,450
2018-03-17T09:22:25.260Z,455
2018-03-17T09:23:24.880Z,415
2018-03-17T09:24:24.500Z,430
2018-03-17T09:25:26.320Z,385
2018-03-17T09:26:25.522Z,390
2018-03-17T09:27:25.558Z,410
2018-03-17T09:28:26.218Z,385
2018-03-17T09:29:25.364Z,405
2018-03-17T09:30:23.779Z,410
2018-03-17T09:31:23.536Z,425
2018-03-17T09:32:23.134Z,420
2018-03-17T09:33:24.523Z,450
2018-03-17T09:34:24.563Z,485
2018-03-17T09:35:23.572Z,480
2018-03-17T09:36:23.338Z,470
2018-03-17T09:37:24.094Z,460
2018-03-17T09:38:23.424Z,440
2018-03-17T09:39:23.219Z,440
2018-03-17T09:40:23.100Z,455
2018-03-17T09:41:22.779Z,495
2018-03-17T09:42:23.454Z,500
2018-03-17T09:43:23.671Z,530
2018-03-17T09:44:23.815Z,555
2018-03-17T09:45:23.799Z,535
2018-03-17T09:46:23.139Z,565
2018-03-17T09:47:23.453Z,540
2018-03-17T09:48:24.227Z,525
2018-03-17T09:49:23.222Z,540
2018-03-17T09:50:21.825Z,590
2018-03-17T09:51:22.427Z,535
2018-03-17T09:52:24.208Z,580
2018-03-17T09:53:22.427Z,585
2018-03-17T09:54:23.516Z,655
2018-03-17T09:55:24.119Z,635
2018-03-17T09:56:23.466Z,630
2018-03-17T09:57:22.734Z,660
2018-03-17T09:58:22.557Z,570
2018-03-17T09:59:23.304Z,590
2018-03-17T10:00:22.311Z,590
2018-03-17T10:01:22.589Z,615
2018-03-17T10:02:21.899Z,630
2018-03-17T10:03:23.005Z,660
2018-03-17T10:04:22.485Z,595
2018-03-17T10:05:22.018Z,615
2018-03-17T10:06:23.333Z,655
2018-03-17T10:07:23.177Z,685
2018-03-17T10:08:21.561Z,750
2018-03-17T10:09:21.850Z,795
2018-03-17T10:10:23.045Z,830
2018-03-17T10:11:22.598Z,765
2018-03-17T10:12:22.226Z,670
2018-03-17T10:13:22.702Z,650
2018-03-17T10:14:23.436Z,705
2018-03-17T10:15:21.960Z,755
2018-03-17T10:16:22.107Z,750
2018-03-17T10:17:22.331Z,710
2018-03-17T10:18:22.583Z,740
2018-03-17T10:19:22.113Z,720
2018-03-17T10:20:21.615Z,725
2018-03-17T10:21:21.853Z,695
2018-03-17T10:22:22.473Z,700
2018-03-17T10:23:21.369Z,710
2018-03-17T10:24:21.297Z,680
2018-03-17T10:25:23.062Z,815
2018-03-17T10:26:21.557Z,710
2018-03-17T10:27:21.747Z,635
2018-03-17T10:28:22.145Z,620
2018-03-17T10:29:22.041Z,620
2018-03-17T10:30:23.806Z,700
2018-03-17T10:31:23.450Z,790
2018-03-17T10:32:21.296Z,840
2018-03-17T10:33:22.111Z,745
2018-03-17T10:34:22.954Z,705
2018-03-17T10:35:21.253Z,740
2018-03-17T10:36:21.319Z,650
2018-03-17T10:37:21.554Z,575
2018-03-17T10:38:21.230Z,570
2018-03-17T10:39:21.371Z,590
2018-03-17T10:40:22.063Z,615
2018-03-17T10:41:21.200Z,615
2018-03-17T10:42:21.613Z,535
2018-03-17T10:43:20.911Z,580
2018-03-17T10:44:21.404Z,535
2018-03-17T10:45:21.358Z,575
2018-03-17T10:46:20.553Z,520
2018-03-17T10:47:20.412Z,510
2018-03-17T10:48:20.345Z,500
2018-03-17T10:49:20.900Z,440
2018-03-17T10:50:20.136Z,495
2018-03-17T10:51:20.512Z,490
2018-03-17T10:52:20.771Z,460
2018-03-17T10:53:21.156Z,535
2018-03-17T10:54:20.144Z,570
2018-03-17T10:55:19.765Z,515
2018-03-17T10:56:19.966Z,530
2018-03-17T10:57:19.931Z,525
2018-03-17T10:58:19.661Z,525
2018-03-17T10:59:19.156Z,530
2018-03-17T11:00:19.654Z,540
2018-03-17T11:01:19.802Z,495
2018-03-17T11:02:19.619Z,535
2018-03-17T11:03:19.483Z,490
2018-03-17T11:04:19.722Z,565
2018-03-17T11:05:19.520Z,520
2018-03-17T11:06:19.815Z,460
2018-03-17T11:07:19.377Z,435
2018-03-17T11:08:19.413Z,465
2018-03-17T11:09:19.289Z,455
2018-03-17T11:10:19.037Z,505
2018-03-17T11:11:19.476Z,500
2018-03-17T11:12:19.452Z,540
2018-03-17T11:13:19.403Z,560
2018-03-17T11:14:19.126Z,535
2018-03-17T11:15:19.338Z,615
2018-03-17T11:16:19.316Z,620
2018-03-17T11:17:19.035Z,610
2018-03-17T11:18:19.324Z,605
2018-03-17T11:19:18.462Z,620
2018-03-17T11:20:18.929Z,595
2018-03-17T11:21:19.150Z,570
2018-03-17T11:22:19.143Z,575
2018-03-17T11:23:18.578Z,645
2018-03-17T11:24:18.799Z,565
2018-03-17T11:25:18.760Z,495
2018-03-17T11:26:18.982Z,500
2018-03-17T11:27:18.456Z,510
2018-03-17T11:28:18.175Z,540
2018-03-17T11:29:18.631Z,480
2018-03-17T11:30:18.597Z,420
2018-03-17T11:31:18.816Z,440
2018-03-17T11:32:18.786Z,530
2018-03-17T11:33:18.510Z,520
2018-03-17T11:34:18.474Z,520
2018-03-17T11:35:18.685Z,465
2018-03-17T11:36:18.418Z,435
2018-03-17T11:37:18.619Z,500
2018-03-17T11:38:18.588Z,520
2018-03-17T11:39:18.563Z,455
2018-03-17T11:40:18.515Z,610
2018-03-17T11:41:18.494Z,535
2018-03-17T11:42:18.461Z,465
2018-03-17T11:43:18.983Z,465
2018-03-17T11:44:18.135Z,435
2018-03-17T11:45:18.369Z,505
2018-03-17T11:46:18.385Z,475
2018-03-17T11:47:18.286Z,510
2018-03-17T11:48:18.263Z,450
2018-03-17T11:49:18.227Z,510
2018-03-17T11:50:18.189Z,550
2018-03-17T11:51:18.165Z,475
2018-03-17T11:52:17.874Z,475
2018-03-17T11:53:18.092Z,430
2018-03-17T11:54:18.059Z,430
2018-03-17T11:55:18.027Z,435
2018-03-17T11:56:18.002Z,440
2018-03-17T11:57:17.966Z,425
2018-03-17T11:58:17.928Z,490
2018-03-17T11:59:17.648Z,500
2018-03-17T12:00:17.646Z,540
2018-03-17T12:01:17.326Z,480
2018-03-17T12:02:17.801Z,460
2018-03-17T12:03:17.771Z,460
2018-03-17T12:04:17.740Z,415
2018-03-17T12:05:17.447Z,435
2018-03-17T12:06:17.413Z,400
2018-03-17T12:07:17.379Z,470
2018-03-17T12:08:17.351Z,455
2018-03-17T12:09:17.570Z,435
2018-03-17T12:10:17.615Z,435
2018-03-17T12:11:17.022Z,400
2018-03-17T12:12:17.461Z,420
2018-03-17T12:13:17.494Z,435
2018-03-17T12:14:17.492Z,420
2018-03-17T12:15:17.365Z,425
2018-03-17T12:16:17.349Z,450
2018-03-17T12:17:17.306Z,440
2018-03-17T12:18:17.043Z,430
2018-03-17T12:19:17.057Z,465
2018-03-17T12:20:16.945Z,490
2018-03-17T12:21:16.924Z,490
2018-03-17T12:22:17.167Z,460
2018-03-17T12:23:16.854Z,440
2018-03-17T12:24:16.815Z,435
2018-03-17T12:25:17.103Z,365
2018-03-17T12:26:17.014Z,385
2018-03-17T12:27:16.501Z,430
2018-03-17T12:28:16.684Z,455
2018-03-17T12:29:16.658Z,455
2018-03-17T12:30:16.864Z,405
2018-03-17T12:31:16.584Z,405
2018-03-17T12:32:16.551Z,420
2018-03-17T12:33:16.774Z,455
2018-03-17T12:34:16.492Z,435
2018-03-17T12:35:16.696Z,430
2018-03-17T12:36:16.668Z,420
2018-03-17T12:37:16.228Z,390
2018-03-17T12:38:16.603Z,440
2018-03-17T12:39:16.312Z,440
2018-03-17T12:40:16.293Z,470
2018-03-17T12:41:16.575Z,500
2018-03-17T12:42:16.264Z,465
2018-03-17T12:43:16.186Z,480
2018-03-17T12:44:16.401Z,510
2018-03-17T12:45:16.374Z,480
2018-03-17T12:46:16.082Z,535
2018-03-17T12:47:16.317Z,485
2018-03-17T12:48:16.269Z,515
2018-03-17T12:49:15.988Z,435
2018-03-17T12:50:16.203Z,410
2018-03-17T12:51:16.178Z,430
2018-03-17T12:52:16.133Z,425
2018-03-17T12:53:16.106Z,430
2018-03-17T12:54:16.956Z,445
2018-03-17T12:55:15.783Z,425
2018-03-17T12:56:15.759Z,385
2018-03-17T12:57:15.974Z,355
2018-03-17T12:58:15.936Z,360
2018-03-17T12:59:15.655Z,325
2018-03-17T13:00:15.876Z,360
2018-03-17T13:01:15.582Z,335
2018-03-17T13:02:15.564Z,310
2018-03-17T13:03:15.520Z,315
2018-03-17T13:04:15.493Z,315
2018-03-17T13:05:15.696Z,295
2018-03-17T13:06:15.882Z,285
2018-03-17T13:07:15.640Z,300
2018-03-17T13:08:15.599Z,305
2018-03-17T13:09:15.564Z,300
2018-03-17T13:10:15.292Z,310
2018-03-17T13:11:15.259Z,320
2018-03-17T13:12:15.227Z,300
2018-03-17T13:13:15.184Z,300
2018-03-17T13:14:15.402Z,315
2018-03-17T13:15:15.363Z,305
2018-03-17T13:16:15.085Z,310
2018-03-17T13:17:14.555Z,315
2018-03-17T13:18:15.022Z,305
2018-03-17T13:19:14.735Z,280
2018-03-17T13:20:14.702Z,300
2018-03-17T13:21:14.924Z,295
2018-03-17T13:22:15.166Z,295
2018-03-17T13:23:14.899Z,330
2018-03-17T13:24:14.814Z,350
2018-03-17T13:25:15.035Z,355
2018-03-17T13:26:14.755Z,360
2018-03-17T13:27:14.967Z,340
2018-03-17T13:28:14.679Z,330
2018-03-17T13:29:14.401Z,325
2018-03-17T13:30:14.883Z,310
2018-03-17T13:31:14.582Z,305
2018-03-17T13:32:14.811Z,310
2018-03-17T13:33:14.999Z,315
2018-03-17T13:34:14.730Z,300
2018-03-17T13:35:14.701Z,280
2018-03-17T13:36:14.664Z,270
2018-03-17T13:37:14.628Z,275
2018-03-17T13:38:14.593Z,280
2018-03-17T13:39:14.556Z,275
2018-03-17T13:40:14.038Z,260
2018-03-17T13:41:14.500Z,285
2018-03-17T13:42:14.228Z,280
2018-03-17T13:43:14.422Z,290
2018-03-17T13:44:14.202Z,290
2018-03-17T13:45:14.111Z,275
2018-03-17T13:46:14.322Z,275
2018-03-17T13:47:14.296Z,265
2018-03-17T13:48:14.254Z,260
2018-03-17T13:49:13.994Z,275
2018-03-17T13:50:14.191Z,285
2018-03-17T13:51:13.658Z,275
2018-03-17T13:52:13.891Z,255
2018-03-17T13:53:14.086Z,255
2018-03-17T13:54:13.811Z,255
2018-03-17T13:55:14.027Z,265
2018-03-17T13:56:13.985Z,270
2018-03-17T13:57:13.717Z,275
2018-03-17T13:58:13.920Z,270
2018-03-17T13:59:13.884Z,270
2018-03-17T14:00:13.857Z,280
2018-03-17T14:01:14.704Z,295
2018-03-17T14:02:14.141Z,285
2018-03-17T14:03:13.507Z,280
2018-03-17T14:04:13.793Z,270
2018-03-17T14:05:13.431Z,270
2018-03-17T14:06:13.654Z,270
2018-03-17T14:07:13.704Z,230
2018-03-17T14:08:13.623Z,235
2018-03-17T14:09:13.712Z,240
2018-03-17T14:10:13.994Z,255
2018-03-17T14:11:13.710Z,245
2018-03-17T14:12:14.682Z,225
2018-03-17T14:13:13.952Z,220